sensor_id;sensor_type;location;lat;lon;timestamp;temperature;humidity
16801;DHT22;8518;53.236;10.384;2023-03-25T00:05:38;9.00;99.90
16801;DHT22;8518;53.236;10.384;2023-03-25T00:08:04;9.00;99.90
16801;DHT22;8518;53.236;10.384;2023-03-25T00:10:30;9.00;99.90
16801;DHT22;8518;53.236;10.384;2023-03-25T00:16:18;9.00;99.90
16801;DHT22;8518;53.236;10.384;2023-03-25T00:18:44;9.10;99.90
16801;DHT22;8518;53.236;10.384;2023-03-25T00:21:12;9.10;99.90
16801;DHT22;8518;53.236;10.384;2023-03-25T00:27:00;9.00;99.90
16801;DHT22;8518;53.236;10.384;2023-03-25T00:32:48;9.00;99.90
16801;DHT22;8518;53.236;10.384;2023-03-25T00:35:14;8.90;99.90
16801;DHT22;8518;53.236;10.384;2023-03-25T00:37:42;8.90;99.90
16801;DHT22;8518;53.236;10.384;2023-03-25T00:40:08;8.80;99.90
16801;DHT22;8518;53.236;10.384;2023-03-25T00:45:58;8.70;99.90
16801;DHT22;8518;53.236;10.384;2023-03-25T00:48:23;8.70;99.90
16801;DHT22;8518;53.236;10.384;2023-03-25T00:50:52;8.60;99.90
16801;DHT22;8518;53.236;10.384;2023-03-25T00:56:39;8.50;99.90
16801;DHT22;8518;53.236;10.384;2023-03-25T00:59:05;8.50;99.90
16801;DHT22;8518;53.236;10.384;2023-03-25T01:01:31;8.60;99.90
16801;DHT22;8518;53.236;10.384;2023-03-25T01:07:19;8.40;99.90
16801;DHT22;8518;53.236;10.384;2023-03-25T01:09:46;8.50;99.90
16801;DHT22;8518;53.236;10.384;2023-03-25T01:12:15;8.50;99.90
16801;DHT22;8518;53.236;10.384;2023-03-25T01:14:42;10.30;99.90
16801;DHT22;8518;53.236;10.384;2023-03-25T01:17:07;8.80;99.90
16801;DHT22;8518;53.236;10.384;2023-03-25T01:19:33;8.60;99.90
16801;DHT22;8518;53.236;10.384;2023-03-25T01:21:58;8.70;99.90
16801;DHT22;8518;53.236;10.384;2023-03-25T01:24:24;8.70;99.90
16801;DHT22;8518;53.236;10.384;2023-03-25T01:26:50;8.50;99.90
16801;DHT22;8518;53.236;10.384;2023-03-25T01:29:18;8.70;99.90
16801;DHT22;8518;53.236;10.384;2023-03-25T01:31:45;8.70;99.90
16801;DHT22;8518;53.236;10.384;2023-03-25T01:34:11;9.00;99.90
16801;DHT22;8518;53.236;10.384;2023-03-25T01:36:37;8.70;99.90
16801;DHT22;8518;53.236;10.384;2023-03-25T01:39:12;8.70;99.90
16801;DHT22;8518;53.236;10.384;2023-03-25T01:41:41;8.70;99.90
16801;DHT22;8518;53.236;10.384;2023-03-25T01:47:29;8.70;99.90
16801;DHT22;8518;53.236;10.384;2023-03-25T01:49:55;8.70;99.90
16801;DHT22;8518;53.236;10.384;2023-03-25T01:55:43;8.70;99.90
16801;DHT22;8518;53.236;10.384;2023-03-25T01:58:13;8.70;99.90
16801;DHT22;8518;53.236;10.384;2023-03-25T02:00:41;8.70;99.90
16801;DHT22;8518;53.236;10.384;2023-03-25T02:06:55;8.80;99.90
16801;DHT22;8518;53.236;10.384;2023-03-25T02:12:43;8.80;99.90
16801;DHT22;8518;53.236;10.384;2023-03-25T02:15:12;8.70;99.90
16801;DHT22;8518;53.236;10.384;2023-03-25T02:18:11;8.70;99.90
16801;DHT22;8518;53.236;10.384;2023-03-25T02:21:26;8.60;99.90
16801;DHT22;8518;53.236;10.384;2023-03-25T02:27:39;8.50;99.90
16801;DHT22;8518;53.236;10.384;2023-03-25T02:36:36;8.60;99.90
16801;DHT22;8518;53.236;10.384;2023-03-25T02:44:31;9.50;99.90
16801;DHT22;8518;53.236;10.384;2023-03-25T02:47:00;8.50;99.90
16801;DHT22;8518;53.236;10.384;2023-03-25T02:49:33;8.60;99.90
16801;DHT22;8518;53.236;10.384;2023-03-25T02:52:06;8.60;99.90
16801;DHT22;8518;53.236;10.384;2023-03-25T02:54:34;8.60;99.90
16801;DHT22;8518;53.236;10.384;2023-03-25T02:57:05;8.40;99.90
16801;DHT22;8518;53.236;10.384;2023-03-25T02:59:32;8.70;99.90
16801;DHT22;8518;53.236;10.384;2023-03-25T03:02:05;8.70;99.90
16801;DHT22;8518;53.236;10.384;2023-03-25T03:04:43;8.70;99.90
16801;DHT22;8518;53.236;10.384;2023-03-25T03:07:09;8.80;99.90
16801;DHT22;8518;53.236;10.384;2023-03-25T03:09:45;10.10;99.90
16801;DHT22;8518;53.236;10.384;2023-03-25T03:18:12;8.90;99.90
16801;DHT22;8518;53.236;10.384;2023-03-25T03:26:58;8.70;99.90
16801;DHT22;8518;53.236;10.384;2023-03-25T03:33:24;8.50;99.90
16801;DHT22;8518;53.236;10.384;2023-03-25T03:35:55;8.50;99.90
16801;DHT22;8518;53.236;10.384;2023-03-25T03:38:26;8.40;99.90
16801;DHT22;8518;53.236;10.384;2023-03-25T03:40:55;8.60;99.90
16801;DHT22;8518;53.236;10.384;2023-03-25T03:47:03;8.40;99.90
16801;DHT22;8518;53.236;10.384;2023-03-25T03:49:37;8.50;99.90
16801;DHT22;8518;53.236;10.384;2023-03-25T03:55:31;8.50;99.90
16801;DHT22;8518;53.236;10.384;2023-03-25T03:58:05;8.30;99.90
16801;DHT22;8518;53.236;10.384;2023-03-25T04:07:14;8.50;99.90
16801;DHT22;8518;53.236;10.384;2023-03-25T04:12:14;8.50;99.90
16801;DHT22;8518;53.236;10.384;2023-03-25T04:14:41;9.70;99.90
16801;DHT22;8518;53.236;10.384;2023-03-25T04:17:07;9.70;99.90
16801;DHT22;8518;53.236;10.384;2023-03-25T04:19:33;8.50;99.90
16801;DHT22;8518;53.236;10.384;2023-03-25T04:22:00;8.40;99.90
16801;DHT22;8518;53.236;10.384;2023-03-25T04:24:26;9.20;99.90
16801;DHT22;8518;53.236;10.384;2023-03-25T04:26:56;8.30;99.90
16801;DHT22;8518;53.236;10.384;2023-03-25T04:29:22;8.30;99.90
16801;DHT22;8518;53.236;10.384;2023-03-25T04:31:49;8.30;99.90
16801;DHT22;8518;53.236;10.384;2023-03-25T04:34:19;8.40;99.90
16801;DHT22;8518;53.236;10.384;2023-03-25T04:36:44;8.40;99.90
16801;DHT22;8518;53.236;10.384;2023-03-25T04:39:11;9.60;99.90
16801;DHT22;8518;53.236;10.384;2023-03-25T04:41:37;8.40;99.90
16801;DHT22;8518;53.236;10.384;2023-03-25T04:47:25;8.40;99.90
16801;DHT22;8518;53.236;10.384;2023-03-25T04:49:51;8.30;99.90
16801;DHT22;8518;53.236;10.384;2023-03-25T04:55:39;8.30;99.90
16801;DHT22;8518;53.236;10.384;2023-03-25T04:58:12;8.30;99.90
16801;DHT22;8518;53.236;10.384;2023-03-25T05:00:39;8.30;99.90
16801;DHT22;8518;53.236;10.384;2023-03-25T05:06:27;8.30;99.90
16801;DHT22;8518;53.236;10.384;2023-03-25T05:08:53;8.30;99.90
16801;DHT22;8518;53.236;10.384;2023-03-25T05:11:19;8.30;99.90
16801;DHT22;8518;53.236;10.384;2023-03-25T05:17:07;8.30;99.90
16801;DHT22;8518;53.236;10.384;2023-03-25T05:19:32;8.30;99.90
16801;DHT22;8518;53.236;10.384;2023-03-25T05:21:59;8.20;99.90
16801;DHT22;8518;53.236;10.384;2023-03-25T05:24:26;7.90;99.90
16801;DHT22;8518;53.236;10.384;2023-03-25T05:26:52;8.20;99.90
16801;DHT22;8518;53.236;10.384;2023-03-25T05:29:19;8.30;99.90
16801;DHT22;8518;53.236;10.384;2023-03-25T05:31:45;9.60;99.90
16801;DHT22;8518;53.236;10.384;2023-03-25T05:34:11;9.70;99.90
16801;DHT22;8518;53.236;10.384;2023-03-25T05:36:38;8.40;99.90
16801;DHT22;8518;53.236;10.384;2023-03-25T05:39:04;8.40;99.90
16801;DHT22;8518;53.236;10.384;2023-03-25T05:41:30;8.40;99.90
16801;DHT22;8518;53.236;10.384;2023-03-25T05:47:26;8.30;99.90
16801;DHT22;8518;53.236;10.384;2023-03-25T05:49:53;8.20;99.90
16801;DHT22;8518;53.236;10.384;2023-03-25T05:55:41;8.30;99.90
16801;DHT22;8518;53.236;10.384;2023-03-25T05:58:06;8.30;99.90
16801;DHT22;8518;53.236;10.384;2023-03-25T06:00:32;9.10;99.90
16801;DHT22;8518;53.236;10.384;2023-03-25T06:06:20;8.40;99.90
16801;DHT22;8518;53.236;10.384;2023-03-25T06:08:47;8.50;99.90
16801;DHT22;8518;53.236;10.384;2023-03-25T06:11:17;8.50;99.90
16801;DHT22;8518;53.236;10.384;2023-03-25T06:17:08;8.40;99.90
16801;DHT22;8518;53.236;10.384;2023-03-25T06:19:38;8.00;99.90
16801;DHT22;8518;53.236;10.384;2023-03-25T06:22:09;8.20;99.90
16801;DHT22;8518;53.236;10.384;2023-03-25T06:24:39;8.20;99.90
16801;DHT22;8518;53.236;10.384;2023-03-25T06:27:15;8.00;99.90
16801;DHT22;8518;53.236;10.384;2023-03-25T06:29:47;7.90;99.90
16801;DHT22;8518;53.236;10.384;2023-03-25T06:35:35;8.00;99.90
16801;DHT22;8518;53.236;10.384;2023-03-25T06:41:24;8.10;99.90
16801;DHT22;8518;53.236;10.384;2023-03-25T06:47:12;8.00;99.90
16801;DHT22;8518;53.236;10.384;2023-03-25T06:49:37;8.00;99.90
16801;DHT22;8518;53.236;10.384;2023-03-25T06:52:03;8.10;99.90
16801;DHT22;8518;53.236;10.384;2023-03-25T06:54:29;8.20;99.90
16801;DHT22;8518;53.236;10.384;2023-03-25T06:56:54;8.20;99.90
16801;DHT22;8518;53.236;10.384;2023-03-25T06:59:20;8.20;99.90
16801;DHT22;8518;53.236;10.384;2023-03-25T07:01:46;8.20;99.90
16801;DHT22;8518;53.236;10.384;2023-03-25T07:04:11;8.30;99.90
16801;DHT22;8518;53.236;10.384;2023-03-25T07:06:37;8.50;99.90
16801;DHT22;8518;53.236;10.384;2023-03-25T07:09:03;8.70;99.90
16801;DHT22;8518;53.236;10.384;2023-03-25T07:11:29;8.80;99.90
16801;DHT22;8518;53.236;10.384;2023-03-25T07:17:19;8.80;99.90
16801;DHT22;8518;53.236;10.384;2023-03-25T07:23:20;9.00;99.90
16801;DHT22;8518;53.236;10.384;2023-03-25T07:25:46;9.00;99.90
16801;DHT22;8518;53.236;10.384;2023-03-25T07:28:11;9.10;99.90
16801;DHT22;8518;53.236;10.384;2023-03-25T07:30:37;9.20;99.90
16801;DHT22;8518;53.236;10.384;2023-03-25T07:36:25;9.30;99.90
16801;DHT22;8518;53.236;10.384;2023-03-25T07:38:51;9.40;99.90
16801;DHT22;8518;53.236;10.384;2023-03-25T07:44:39;9.50;99.90
16801;DHT22;8518;53.236;10.384;2023-03-25T07:47:05;9.80;99.90
16801;DHT22;8518;53.236;10.384;2023-03-25T07:49:31;10.20;99.90
16801;DHT22;8518;53.236;10.384;2023-03-25T07:51:56;10.20;99.90
16801;DHT22;8518;53.236;10.384;2023-03-25T07:54:22;10.20;99.90
16801;DHT22;8518;53.236;10.384;2023-03-25T07:56:49;10.10;99.90
16801;DHT22;8518;53.236;10.384;2023-03-25T07:59:17;9.70;99.90
16801;DHT22;8518;53.236;10.384;2023-03-25T08:01:42;11.10;99.90
16801;DHT22;8518;53.236;10.384;2023-03-25T08:07:31;10.20;99.90
16801;DHT22;8518;53.236;10.384;2023-03-25T08:10:00;10.30;99.90
16801;DHT22;8518;53.236;10.384;2023-03-25T08:15:48;10.40;99.90
16801;DHT22;8518;53.236;10.384;2023-03-25T08:18:13;11.00;99.90
16801;DHT22;8518;53.236;10.384;2023-03-25T08:20:39;11.30;99.90
16801;DHT22;8518;53.236;10.384;2023-03-25T08:26:28;11.00;99.90
16801;DHT22;8518;53.236;10.384;2023-03-25T08:32:18;12.30;99.90
16801;DHT22;8518;53.236;10.384;2023-03-25T08:34:43;12.20;99.90
16801;DHT22;8518;53.236;10.384;2023-03-25T08:37:09;11.90;99.90
16801;DHT22;8518;53.236;10.384;2023-03-25T08:39:36;11.40;99.90
16801;DHT22;8518;53.236;10.384;2023-03-25T08:42:08;11.30;99.90
16801;DHT22;8518;53.236;10.384;2023-03-25T08:44:34;10.90;99.90
16801;DHT22;8518;53.236;10.384;2023-03-25T08:47:00;11.20;99.90
16801;DHT22;8518;53.236;10.384;2023-03-25T08:49:25;10.40;99.90
16801;DHT22;8518;53.236;10.384;2023-03-25T08:51:54;10.50;99.90
16801;DHT22;8518;53.236;10.384;2023-03-25T08:54:25;11.90;99.90
16801;DHT22;8518;53.236;10.384;2023-03-25T08:56:51;12.30;99.90
16801;DHT22;8518;53.236;10.384;2023-03-25T08:59:20;15.10;99.90
16801;DHT22;8518;53.236;10.384;2023-03-25T09:01:46;14.40;99.90
16801;DHT22;8518;53.236;10.384;2023-03-25T09:04:12;14.30;99.90
16801;DHT22;8518;53.236;10.384;2023-03-25T09:06:38;15.40;99.90
16801;DHT22;8518;53.236;10.384;2023-03-25T09:09:05;13.80;99.90
16801;DHT22;8518;53.236;10.384;2023-03-25T09:11:34;14.60;99.90
16801;DHT22;8518;53.236;10.384;2023-03-25T09:17:22;13.30;99.90
16801;DHT22;8518;53.236;10.384;2023-03-25T09:19:47;13.10;99.90
16801;DHT22;8518;53.236;10.384;2023-03-25T09:25:36;13.80;99.90
16801;DHT22;8518;53.236;10.384;2023-03-25T09:28:02;14.70;99.90
16801;DHT22;8518;53.236;10.384;2023-03-25T09:30:27;14.60;99.90
16801;DHT22;8518;53.236;10.384;2023-03-25T09:36:15;13.60;99.90
16801;DHT22;8518;53.236;10.384;2023-03-25T09:38:40;12.70;99.90
16801;DHT22;8518;53.236;10.384;2023-03-25T09:41:25;12.10;99.90
16801;DHT22;8518;53.236;10.384;2023-03-25T09:47:15;11.20;99.90
16801;DHT22;8518;53.236;10.384;2023-03-25T09:49:45;10.90;99.90
16801;DHT22;8518;53.236;10.384;2023-03-25T09:55:41;9.10;99.90
16801;DHT22;8518;53.236;10.384;2023-03-25T09:58:39;8.00;99.90
16801;DHT22;8518;53.236;10.384;2023-03-25T10:01:22;7.40;99.90
16801;DHT22;8518;53.236;10.384;2023-03-25T10:10:23;7.60;99.90
16801;DHT22;8518;53.236;10.384;2023-03-25T10:16:35;7.40;99.90
16801;DHT22;8518;53.236;10.384;2023-03-25T10:22:03;7.50;99.90
16801;DHT22;8518;53.236;10.384;2023-03-25T10:24:48;9.00;99.90
16801;DHT22;8518;53.236;10.384;2023-03-25T10:27:25;7.50;99.90
16801;DHT22;8518;53.236;10.384;2023-03-25T10:30:33;8.30;99.90
16801;DHT22;8518;53.236;10.384;2023-03-25T10:36:31;7.90;99.90
16801;DHT22;8518;53.236;10.384;2023-03-25T10:39:01;9.50;99.90
16801;DHT22;8518;53.236;10.384;2023-03-25T10:41:36;11.60;99.90
16801;DHT22;8518;53.236;10.384;2023-03-25T10:47:32;13.60;99.90
16801;DHT22;8518;53.236;10.384;2023-03-25T10:50:01;13.20;99.90
16801;DHT22;8518;53.236;10.384;2023-03-25T10:56:14;14.00;99.90
16801;DHT22;8518;53.236;10.384;2023-03-25T10:58:44;14.90;99.90
16801;DHT22;8518;53.236;10.384;2023-03-25T11:01:34;14.20;99.90
16801;DHT22;8518;53.236;10.384;2023-03-25T11:07:32;13.40;99.90
16801;DHT22;8518;53.236;10.384;2023-03-25T11:16:10;13.40;99.90
16801;DHT22;8518;53.236;10.384;2023-03-25T11:22:07;13.00;99.90
16801;DHT22;8518;53.236;10.384;2023-03-25T11:24:41;13.10;99.90
16801;DHT22;8518;53.236;10.384;2023-03-25T11:27:08;12.80;99.90
16801;DHT22;8518;53.236;10.384;2023-03-25T11:29:35;12.50;99.90
16801;DHT22;8518;53.236;10.384;2023-03-25T11:32:12;12.10;99.90
16801;DHT22;8518;53.236;10.384;2023-03-25T11:34:39;11.60;99.90
16801;DHT22;8518;53.236;10.384;2023-03-25T11:37:20;11.40;99.90
16801;DHT22;8518;53.236;10.384;2023-03-25T11:39:51;11.10;99.90
16801;DHT22;8518;53.236;10.384;2023-03-25T11:45:44;10.40;99.90
16801;DHT22;8518;53.236;10.384;2023-03-25T11:48:22;10.30;99.90
16801;DHT22;8518;53.236;10.384;2023-03-25T11:50:55;11.40;99.90
16801;DHT22;8518;53.236;10.384;2023-03-25T11:56:47;9.90;99.90
16801;DHT22;8518;53.236;10.384;2023-03-25T11:59:25;9.90;99.90
16801;DHT22;8518;53.236;10.384;2023-03-25T12:01:59;9.40;99.90
16801;DHT22;8518;53.236;10.384;2023-03-25T12:04:27;9.30;99.90
16801;DHT22;8518;53.236;10.384;2023-03-25T12:07:08;9.10;99.90
16801;DHT22;8518;53.236;10.384;2023-03-25T12:09:35;9.00;99.90
16801;DHT22;8518;53.236;10.384;2023-03-25T12:15:45;8.90;99.90
16801;DHT22;8518;53.236;10.384;2023-03-25T12:21:26;8.80;99.90
16801;DHT22;8518;53.236;10.384;2023-03-25T12:27:40;9.20;99.90
16801;DHT22;8518;53.236;10.384;2023-03-25T12:36:39;13.50;99.90
16801;DHT22;8518;53.236;10.384;2023-03-25T13:08:58;12.70;99.90
16801;DHT22;8518;53.236;10.384;2023-03-25T13:11:27;12.10;99.90
16801;DHT22;8518;53.236;10.384;2023-03-25T13:17:25;11.20;99.90
16801;DHT22;8518;53.236;10.384;2023-03-25T13:19:58;11.00;99.90
16801;DHT22;8518;53.236;10.384;2023-03-25T13:25:58;10.70;99.90
16801;DHT22;8518;53.236;10.384;2023-03-25T13:31:51;10.40;99.90
16801;DHT22;8518;53.236;10.384;2023-03-25T13:34:51;10.30;99.90
16801;DHT22;8518;53.236;10.384;2023-03-25T13:37:37;10.20;99.90
16801;DHT22;8518;53.236;10.384;2023-03-25T13:46:15;10.20;99.90
16801;DHT22;8518;53.236;10.384;2023-03-25T13:51:11;9.60;99.90
16801;DHT22;8518;53.236;10.384;2023-03-25T14:00:17;9.60;99.90
16801;DHT22;8518;53.236;10.384;2023-03-25T14:06:21;9.70;99.90
16801;DHT22;8518;53.236;10.384;2023-03-25T14:15:21;9.70;99.90
16801;DHT22;8518;53.236;10.384;2023-03-25T14:17:31;9.90;99.90
16801;DHT22;8518;53.236;10.384;2023-03-25T14:20:05;10.10;99.90
16801;DHT22;8518;53.236;10.384;2023-03-25T14:25:58;9.60;99.90
16801;DHT22;8518;53.236;10.384;2023-03-25T14:34:44;9.30;99.90
16801;DHT22;8518;53.236;10.384;2023-03-25T14:39:46;9.20;99.90
16801;DHT22;8518;53.236;10.384;2023-03-25T14:45:45;9.40;99.90
16801;DHT22;8518;53.236;10.384;2023-03-25T14:48:35;9.60;99.90
16801;DHT22;8518;53.236;10.384;2023-03-25T14:51:53;9.70;99.90
16801;DHT22;8518;53.236;10.384;2023-03-25T14:54:04;9.70;99.90
16801;DHT22;8518;53.236;10.384;2023-03-25T14:56:37;9.80;99.90
16801;DHT22;8518;53.236;10.384;2023-03-25T14:59:14;10.20;99.90
16801;DHT22;8518;53.236;10.384;2023-03-25T15:01:42;10.00;99.90
16801;DHT22;8518;53.236;10.384;2023-03-25T15:07:53;10.70;99.90
16801;DHT22;8518;53.236;10.384;2023-03-25T15:10:33;10.70;99.90
16801;DHT22;8518;53.236;10.384;2023-03-25T15:16:35;11.50;99.90
16801;DHT22;8518;53.236;10.384;2023-03-25T15:22:23;11.20;99.90
16801;DHT22;8518;53.236;10.384;2023-03-25T15:24:54;11.20;99.90
16801;DHT22;8518;53.236;10.384;2023-03-25T15:27:54;11.30;99.90
16801;DHT22;8518;53.236;10.384;2023-03-25T15:37:08;10.90;99.90
16801;DHT22;8518;53.236;10.384;2023-03-25T15:56:36;10.30;99.90
16801;DHT22;8518;53.236;10.384;2023-03-25T16:05:51;9.90;99.90
16801;DHT22;8518;53.236;10.384;2023-03-25T16:08:38;10.00;99.90
16801;DHT22;8518;53.236;10.384;2023-03-25T16:17:11;9.90;99.90
16801;DHT22;8518;53.236;10.384;2023-03-25T16:19:41;10.20;99.90
16801;DHT22;8518;53.236;10.384;2023-03-25T16:25:32;9.60;99.90
16801;DHT22;8518;53.236;10.384;2023-03-25T16:28:05;9.60;99.90
16801;DHT22;8518;53.236;10.384;2023-03-25T16:30:39;9.60;99.90
16801;DHT22;8518;53.236;10.384;2023-03-25T16:36:30;9.60;99.90
16801;DHT22;8518;53.236;10.384;2023-03-25T16:39:00;9.70;99.90
16801;DHT22;8518;53.236;10.384;2023-03-25T16:41:25;9.60;99.90
16801;DHT22;8518;53.236;10.384;2023-03-25T16:47:14;9.40;99.90
16801;DHT22;8518;53.236;10.384;2023-03-25T16:49:41;9.30;99.90
16801;DHT22;8518;53.236;10.384;2023-03-25T16:52:13;9.00;99.90
16801;DHT22;8518;53.236;10.384;2023-03-25T16:54:43;8.80;99.90
16801;DHT22;8518;53.236;10.384;2023-03-25T16:57:18;8.70;99.90
16801;DHT22;8518;53.236;10.384;2023-03-25T16:59:49;8.60;99.90
16801;DHT22;8518;53.236;10.384;2023-03-25T17:05:53;8.50;99.90
16801;DHT22;8518;53.236;10.384;2023-03-25T17:11:50;8.30;99.90
16801;DHT22;8518;53.236;10.384;2023-03-25T17:14:30;8.20;99.90
16801;DHT22;8518;53.236;10.384;2023-03-25T17:17:02;8.10;99.90
16801;DHT22;8518;53.236;10.384;2023-03-25T17:19:28;8.10;99.90
16801;DHT22;8518;53.236;10.384;2023-03-25T17:22:02;8.20;99.90
16801;DHT22;8518;53.236;10.384;2023-03-25T17:24:46;8.30;99.90
16801;DHT22;8518;53.236;10.384;2023-03-25T17:27:25;8.40;99.90
16801;DHT22;8518;53.236;10.384;2023-03-25T17:29:56;8.80;99.90
16801;DHT22;8518;53.236;10.384;2023-03-25T17:35:53;8.50;99.90
16801;DHT22;8518;53.236;10.384;2023-03-25T17:38:28;8.80;99.90
16801;DHT22;8518;53.236;10.384;2023-03-25T17:41:08;9.40;99.90
16801;DHT22;8518;53.236;10.384;2023-03-25T17:46:57;8.10;99.90
16801;DHT22;8518;53.236;10.384;2023-03-25T17:49:23;8.00;99.90
16801;DHT22;8518;53.236;10.384;2023-03-25T17:51:48;7.90;99.90
16801;DHT22;8518;53.236;10.384;2023-03-25T17:54:17;7.80;99.90
16801;DHT22;8518;53.236;10.384;2023-03-25T17:56:43;7.70;99.90
16801;DHT22;8518;53.236;10.384;2023-03-25T17:59:20;8.00;99.90
16801;DHT22;8518;53.236;10.384;2023-03-25T18:01:47;7.50;99.90
16801;DHT22;8518;53.236;10.384;2023-03-25T18:04:14;7.20;99.90
16801;DHT22;8518;53.236;10.384;2023-03-25T18:06:43;7.40;99.90
16801;DHT22;8518;53.236;10.384;2023-03-25T18:09:18;7.30;99.90
16801;DHT22;8518;53.236;10.384;2023-03-25T18:11:46;7.30;99.90
16801;DHT22;8518;53.236;10.384;2023-03-25T18:14:12;7.40;99.90
16801;DHT22;8518;53.236;10.384;2023-03-25T18:16:37;7.30;99.90
16801;DHT22;8518;53.236;10.384;2023-03-25T18:19:03;7.20;99.90
16801;DHT22;8518;53.236;10.384;2023-03-25T18:21:28;7.20;99.90
16801;DHT22;8518;53.236;10.384;2023-03-25T18:27:16;7.30;99.90
16801;DHT22;8518;53.236;10.384;2023-03-25T18:29:44;7.30;99.90
16801;DHT22;8518;53.236;10.384;2023-03-25T18:32:10;7.30;99.90
16801;DHT22;8518;53.236;10.384;2023-03-25T18:34:36;7.30;99.90
16801;DHT22;8518;53.236;10.384;2023-03-25T18:37:01;9.40;99.90
16801;DHT22;8518;53.236;10.384;2023-03-25T18:39:27;7.20;99.90
16801;DHT22;8518;53.236;10.384;2023-03-25T18:41:52;7.50;99.90
16801;DHT22;8518;53.236;10.384;2023-03-25T18:44:18;7.50;99.90
16801;DHT22;8518;53.236;10.384;2023-03-25T18:46:44;7.50;99.90
16801;DHT22;8518;53.236;10.384;2023-03-25T18:49:18;7.50;99.90
16801;DHT22;8518;53.236;10.384;2023-03-25T18:51:44;7.60;99.90
16801;DHT22;8518;53.236;10.384;2023-03-25T18:54:12;7.60;99.90
16801;DHT22;8518;53.236;10.384;2023-03-25T18:56:38;9.40;99.90
16801;DHT22;8518;53.236;10.384;2023-03-25T18:59:06;7.70;99.90
16801;DHT22;8518;53.236;10.384;2023-03-25T19:01:34;7.60;99.90
16801;DHT22;8518;53.236;10.384;2023-03-25T19:07:22;7.70;99.90
16801;DHT22;8518;53.236;10.384;2023-03-25T19:09:51;7.70;99.90
16801;DHT22;8518;53.236;10.384;2023-03-25T19:15:41;7.70;99.90
16801;DHT22;8518;53.236;10.384;2023-03-25T19:18:20;7.70;99.90
16801;DHT22;8518;53.236;10.384;2023-03-25T19:20:49;7.80;99.90
16801;DHT22;8518;53.236;10.384;2023-03-25T19:26:37;7.90;99.90
16801;DHT22;8518;53.236;10.384;2023-03-25T19:29:05;8.90;99.90
16801;DHT22;8518;53.236;10.384;2023-03-25T19:31:31;6.70;99.90
16801;DHT22;8518;53.236;10.384;2023-03-25T19:37:18;7.70;99.90
16801;DHT22;8518;53.236;10.384;2023-03-25T19:39:44;7.50;99.90
16801;DHT22;8518;53.236;10.384;2023-03-25T19:42:10;7.70;99.90
16801;DHT22;8518;53.236;10.384;2023-03-25T19:44:36;7.60;99.90
16801;DHT22;8518;53.236;10.384;2023-03-25T19:47:02;7.60;99.90
16801;DHT22;8518;53.236;10.384;2023-03-25T19:49:28;7.60;99.90
16801;DHT22;8518;53.236;10.384;2023-03-25T19:51:53;8.80;99.90
16801;DHT22;8518;53.236;10.384;2023-03-25T19:54:19;9.20;99.90
16801;DHT22;8518;53.236;10.384;2023-03-25T19:56:45;7.40;99.90
16801;DHT22;8518;53.236;10.384;2023-03-25T19:59:10;7.30;99.90
16801;DHT22;8518;53.236;10.384;2023-03-25T20:01:54;7.20;99.90
16801;DHT22;8518;53.236;10.384;2023-03-25T20:04:19;7.30;99.90
16801;DHT22;8518;53.236;10.384;2023-03-25T20:06:45;7.30;99.90
16801;DHT22;8518;53.236;10.384;2023-03-25T20:09:10;8.60;99.90
16801;DHT22;8518;53.236;10.384;2023-03-25T20:11:37;7.40;99.90
16801;DHT22;8518;53.236;10.384;2023-03-25T20:17:26;7.30;99.90
16801;DHT22;8518;53.236;10.384;2023-03-25T20:19:52;7.10;99.90
16801;DHT22;8518;53.236;10.384;2023-03-25T20:25:39;7.30;99.90
16801;DHT22;8518;53.236;10.384;2023-03-25T20:28:05;7.30;99.90
16801;DHT22;8518;53.236;10.384;2023-03-25T20:30:34;7.90;99.90
16801;DHT22;8518;53.236;10.384;2023-03-25T20:36:21;7.40;99.90
16801;DHT22;8518;53.236;10.384;2023-03-25T20:38:47;7.70;99.90
16801;DHT22;8518;53.236;10.384;2023-03-25T20:41:17;7.30;99.90
16801;DHT22;8518;53.236;10.384;2023-03-25T20:47:04;7.20;99.90
16801;DHT22;8518;53.236;10.384;2023-03-25T20:52:52;7.20;99.90
16801;DHT22;8518;53.236;10.384;2023-03-25T20:55:18;7.10;99.90
16801;DHT22;8518;53.236;10.384;2023-03-25T20:57:53;7.10;99.90
16801;DHT22;8518;53.236;10.384;2023-03-25T21:00:20;7.00;99.90
16801;DHT22;8518;53.236;10.384;2023-03-25T21:06:11;7.00;99.90
16801;DHT22;8518;53.236;10.384;2023-03-25T21:08:38;6.90;99.90
16801;DHT22;8518;53.236;10.384;2023-03-25T21:11:04;6.90;99.90
16801;DHT22;8518;53.236;10.384;2023-03-25T21:16:52;7.30;99.90
16801;DHT22;8518;53.236;10.384;2023-03-25T21:19:19;6.80;99.90
16801;DHT22;8518;53.236;10.384;2023-03-25T21:21:44;6.80;99.90
16801;DHT22;8518;53.236;10.384;2023-03-25T21:24:11;6.60;99.90
16801;DHT22;8518;53.236;10.384;2023-03-25T21:26:38;6.70;99.90
16801;DHT22;8518;53.236;10.384;2023-03-25T21:29:04;6.80;99.90
16801;DHT22;8518;53.236;10.384;2023-03-25T21:31:30;6.00;99.90
16801;DHT22;8518;53.236;10.384;2023-03-25T21:37:19;6.80;99.90
16801;DHT22;8518;53.236;10.384;2023-03-25T21:39:44;7.30;99.90
16801;DHT22;8518;53.236;10.384;2023-03-25T21:42:12;6.90;99.90
16801;DHT22;8518;53.236;10.384;2023-03-25T21:44:38;6.90;99.90
16801;DHT22;8518;53.236;10.384;2023-03-25T21:47:05;6.90;99.90
16801;DHT22;8518;53.236;10.384;2023-03-25T21:49:32;7.00;99.90
16801;DHT22;8518;53.236;10.384;2023-03-25T21:51:59;7.00;99.90
16801;DHT22;8518;53.236;10.384;2023-03-25T21:54:24;7.00;99.90
16801;DHT22;8518;53.236;10.384;2023-03-25T21:56:50;7.90;99.90
16801;DHT22;8518;53.236;10.384;2023-03-25T21:59:20;7.10;99.90
16801;DHT22;8518;53.236;10.384;2023-03-25T22:01:45;7.50;99.90
16801;DHT22;8518;53.236;10.384;2023-03-25T22:04:11;7.20;99.90
16801;DHT22;8518;53.236;10.384;2023-03-25T22:06:37;7.20;99.90
16801;DHT22;8518;53.236;10.384;2023-03-25T22:09:04;6.00;99.90
16801;DHT22;8518;53.236;10.384;2023-03-25T22:11:31;7.30;99.90
16801;DHT22;8518;53.236;10.384;2023-03-25T22:17:20;7.30;99.90
16801;DHT22;8518;53.236;10.384;2023-03-25T22:19:45;7.20;99.90
16801;DHT22;8518;53.236;10.384;2023-03-25T22:22:13;7.30;99.90
16801;DHT22;8518;53.236;10.384;2023-03-25T22:24:43;7.30;99.90
16801;DHT22;8518;53.236;10.384;2023-03-25T22:27:12;7.20;99.90
16801;DHT22;8518;53.236;10.384;2023-03-25T22:29:38;7.40;99.90
16801;DHT22;8518;53.236;10.384;2023-03-25T22:32:06;9.00;99.90
16801;DHT22;8518;53.236;10.384;2023-03-25T22:34:33;8.80;99.90
16801;DHT22;8518;53.236;10.384;2023-03-25T22:37:00;7.40;99.90
16801;DHT22;8518;53.236;10.384;2023-03-25T22:39:26;7.40;99.90
16801;DHT22;8518;53.236;10.384;2023-03-25T22:41:56;7.40;99.90
16801;DHT22;8518;53.236;10.384;2023-03-25T22:44:24;7.50;99.90
16801;DHT22;8518;53.236;10.384;2023-03-25T22:46:50;7.50;99.90
16801;DHT22;8518;53.236;10.384;2023-03-25T22:49:16;7.40;99.90
16801;DHT22;8518;53.236;10.384;2023-03-25T22:51:46;7.40;99.90
16801;DHT22;8518;53.236;10.384;2023-03-25T22:54:12;7.30;99.90
16801;DHT22;8518;53.236;10.384;2023-03-25T22:56:37;7.30;99.90
16801;DHT22;8518;53.236;10.384;2023-03-25T22:59:05;7.00;99.90
16801;DHT22;8518;53.236;10.384;2023-03-25T23:01:31;8.20;99.90